createdAt,value
2017-09-12T00:02:06.615Z,2.57
2017-09-12T00:04:34.179Z,2.20
2017-09-12T00:07:01.750Z,2.63
2017-09-12T00:09:29.421Z,1.77
2017-09-12T00:11:56.991Z,2.97
2017-09-12T00:14:24.751Z,2.00
2017-09-12T00:16:52.305Z,2.30
2017-09-12T00:19:19.889Z,2.37
2017-09-12T00:21:47.501Z,2.20
2017-09-12T00:24:15.064Z,2.03
2017-09-12T00:26:42.638Z,2.80
2017-09-12T00:29:10.188Z,2.23
2017-09-12T00:31:37.762Z,1.87
2017-09-12T00:34:05.353Z,2.00
2017-09-12T00:36:32.906Z,1.57
2017-09-12T00:39:00.479Z,2.23
2017-09-12T00:41:28.038Z,1.93
2017-09-12T00:43:55.622Z,1.90
2017-09-12T00:46:23.193Z,2.10
2017-09-12T00:48:51.514Z,1.80
2017-09-12T00:51:19.073Z,2.23
2017-09-12T00:53:46.647Z,2.60
2017-09-12T00:56:14.211Z,1.70
2017-09-12T00:58:41.780Z,2.30
2017-09-12T01:01:09.350Z,2.20
2017-09-12T01:03:36.956Z,2.23
2017-09-12T01:06:05.278Z,2.10
2017-09-12T01:08:32.851Z,2.33
2017-09-12T01:11:00.415Z,1.73
2017-09-12T01:13:27.974Z,2.57
2017-09-12T01:15:55.576Z,2.27
2017-09-12T01:18:23.912Z,2.93
2017-09-12T01:20:51.474Z,2.07
2017-09-12T01:23:19.025Z,2.13
2017-09-12T01:25:46.582Z,1.73
2017-09-12T01:28:14.142Z,1.73
2017-09-12T01:30:41.725Z,2.47
2017-09-12T01:33:09.257Z,2.57
2017-09-12T01:35:36.829Z,2.27
2017-09-12T01:38:04.478Z,1.87
2017-09-12T01:40:32.634Z,1.93
2017-09-12T01:43:00.325Z,2.10
2017-09-12T01:45:27.877Z,2.70
2017-09-12T01:47:55.483Z,1.60
2017-09-12T01:50:23.851Z,2.33
2017-09-12T01:52:51.429Z,2.17
2017-09-12T01:55:19.757Z,3.37
2017-09-12T01:57:47.330Z,2.30
2017-09-12T02:00:14.902Z,2.50
2017-09-12T02:02:42.477Z,2.20
2017-09-12T02:05:10.150Z,2.30
2017-09-12T02:07:37.969Z,1.80
2017-09-12T02:10:05.571Z,2.33
2017-09-12T02:12:33.262Z,2.43
2017-09-12T02:15:01.616Z,2.87
2017-09-12T02:17:29.179Z,3.50
2017-09-12T02:19:56.747Z,1.73
2017-09-12T02:22:24.367Z,2.10
2017-09-12T02:24:51.931Z,1.87
2017-09-12T02:27:19.515Z,4.20
2017-09-12T02:29:47.096Z,2.60
2017-09-12T02:32:14.631Z,2.47
2017-09-12T02:34:42.313Z,2.30
2017-09-12T02:37:09.997Z,2.73
2017-09-12T02:39:38.415Z,3.03
2017-09-12T02:42:05.991Z,2.60
2017-09-12T02:44:33.595Z,3.00
2017-09-12T02:47:01.155Z,2.43
2017-09-12T02:49:28.719Z,2.33
2017-09-12T02:51:56.294Z,2.50
2017-09-12T02:54:24.636Z,3.00
2017-09-12T02:56:52.214Z,2.53
2017-09-12T02:59:19.766Z,2.93
2017-09-12T03:01:47.351Z,4.33
2017-09-12T03:04:15.674Z,2.60
2017-09-12T03:06:44.157Z,3.20
2017-09-12T03:09:11.738Z,2.77
2017-09-12T03:11:39.390Z,2.67
2017-09-12T03:14:06.975Z,2.50
2017-09-12T03:16:34.536Z,3.40
2017-09-12T03:19:02.222Z,2.87
2017-09-12T03:21:29.783Z,2.93
2017-09-12T03:23:57.338Z,2.50
2017-09-12T03:26:24.935Z,2.60
2017-09-12T03:28:52.502Z,2.60
2017-09-12T03:31:20.085Z,2.30
2017-09-12T03:33:47.666Z,2.13
2017-09-12T03:36:15.267Z,3.23
2017-09-12T03:38:43.611Z,2.43
2017-09-12T03:41:11.227Z,2.50
2017-09-12T03:43:38.814Z,4.03
2017-09-12T03:46:06.384Z,2.80
2017-09-12T03:48:33.964Z,3.30
2017-09-12T03:51:01.552Z,2.93
2017-09-12T03:53:29.129Z,3.00
2017-09-12T03:55:56.882Z,2.77
2017-09-12T03:58:24.439Z,2.40
2017-09-12T04:00:52.002Z,2.50
2017-09-12T04:03:19.554Z,3.20
2017-09-12T04:05:47.141Z,2.10
2017-09-12T04:08:15.530Z,2.33
2017-09-12T04:10:43.880Z,2.73
2017-09-12T04:13:11.443Z,3.07
2017-09-12T04:15:39.020Z,2.83
2017-09-12T04:18:06.632Z,2.50
2017-09-12T04:20:34.218Z,2.47
2017-09-12T04:23:01.808Z,2.90
2017-09-12T04:25:30.131Z,2.90
2017-09-12T04:27:57.693Z,2.27
2017-09-12T04:30:25.306Z,4.33
2017-09-12T04:32:53.006Z,2.40
2017-09-12T04:35:20.603Z,2.70
2017-09-12T04:37:48.158Z,4.37
2017-09-12T04:40:15.713Z,2.53
2017-09-12T04:42:43.326Z,2.63
2017-09-12T04:45:11.650Z,2.90
2017-09-12T04:47:39.240Z,1.97
2017-09-12T04:50:06.902Z,2.73
2017-09-12T04:52:34.462Z,2.40
2017-09-12T04:55:02.046Z,2.70
2017-09-12T04:57:29.682Z,2.80
2017-09-12T04:59:57.258Z,2.40
2017-09-12T05:02:24.847Z,2.20
2017-09-12T05:04:53.159Z,2.20
2017-09-12T05:07:20.721Z,2.70
2017-09-12T05:09:48.323Z,2.90
2017-09-12T05:12:15.868Z,2.37
2017-09-12T05:14:43.492Z,2.70
2017-09-12T05:17:25.878Z,4.33
2017-09-12T05:19:53.450Z,2.57
2017-09-12T05:22:21.059Z,2.83
2017-09-12T05:24:48.618Z,2.53
2017-09-12T05:27:16.200Z,3.13
2017-09-12T05:29:43.755Z,2.70
2017-09-12T05:32:11.396Z,2.70
2017-09-12T05:34:38.979Z,2.70
2017-09-12T05:37:06.567Z,2.60
2017-09-12T05:39:34.898Z,2.83
2017-09-12T05:42:02.479Z,2.97
2017-09-12T05:44:30.040Z,2.63
2017-09-12T05:46:58.362Z,2.33
2017-09-12T05:49:25.935Z,2.90
2017-09-12T05:51:53.555Z,2.40
2017-09-12T05:54:21.903Z,2.60
2017-09-12T05:56:49.525Z,2.70
2017-09-12T05:59:18.057Z,2.77
2017-09-12T06:01:45.626Z,2.90
2017-09-12T06:04:13.195Z,2.97
2017-09-12T06:06:40.773Z,2.93
2017-09-12T06:09:09.119Z,3.10
2017-09-12T06:11:36.704Z,3.47
2017-09-12T06:14:05.032Z,3.50
2017-09-12T06:16:32.616Z,3.37
2017-09-12T06:19:00.191Z,3.03
2017-09-12T06:21:27.771Z,3.77
2017-09-12T06:23:56.120Z,3.23
2017-09-12T06:26:23.681Z,3.07
2017-09-12T06:28:51.266Z,3.50
2017-09-12T06:31:19.619Z,2.87
2017-09-12T06:33:47.232Z,3.00
2017-09-12T06:36:15.555Z,3.83
2017-09-12T06:38:43.124Z,2.80
2017-09-12T06:41:10.793Z,3.57
2017-09-12T06:43:38.382Z,3.20
2017-09-12T06:46:06.728Z,3.00
2017-09-12T06:48:34.310Z,2.80
2017-09-12T06:51:01.880Z,3.63
2017-09-12T06:53:30.234Z,2.90
2017-09-12T06:55:57.787Z,2.97
2017-09-12T06:58:25.351Z,2.40
2017-09-12T07:00:52.927Z,2.60
2017-09-12T07:03:20.487Z,3.03
2017-09-12T07:05:48.038Z,2.90
2017-09-12T07:08:15.624Z,3.17
2017-09-12T07:10:43.185Z,2.40
2017-09-12T07:13:11.542Z,3.03
2017-09-12T07:15:39.138Z,2.60
2017-09-12T07:18:07.487Z,3.20
2017-09-12T07:20:35.067Z,3.00
2017-09-12T07:23:03.422Z,2.97
2017-09-12T07:25:30.957Z,2.90
2017-09-12T07:27:58.527Z,2.87
2017-09-12T07:30:26.115Z,3.67
2017-09-12T07:32:54.654Z,2.80
2017-09-12T07:35:22.231Z,2.77
2017-09-12T07:37:49.829Z,2.90
2017-09-12T07:40:17.398Z,2.60
2017-09-12T07:42:44.958Z,2.90
2017-09-12T07:45:12.529Z,2.63
2017-09-12T07:47:40.869Z,2.80
2017-09-12T07:50:08.589Z,2.60
2017-09-12T07:52:36.246Z,2.87
2017-09-12T07:55:04.600Z,2.83
2017-09-12T07:57:32.164Z,2.10
2017-09-12T08:00:00.491Z,2.33
2017-09-12T08:02:28.082Z,2.07
2017-09-12T08:04:55.650Z,2.73
2017-09-12T08:07:23.237Z,3.30
2017-09-12T08:09:51.557Z,2.70
2017-09-12T08:12:19.106Z,2.23
2017-09-12T08:14:46.691Z,2.50
2017-09-12T08:17:14.321Z,3.00
2017-09-12T08:19:42.655Z,2.47
2017-09-12T08:22:10.370Z,2.53
2017-09-12T08:24:38.010Z,2.60
2017-09-12T08:27:06.371Z,2.23
2017-09-12T08:29:33.923Z,2.63
2017-09-12T08:32:01.530Z,2.00
2017-09-12T08:34:29.123Z,2.50
2017-09-12T08:36:56.705Z,2.57
2017-09-12T08:39:24.287Z,2.77
2017-09-12T08:41:51.866Z,2.83
2017-09-12T08:44:20.254Z,3.00
2017-09-12T08:46:48.589Z,2.90
2017-09-12T08:49:16.152Z,3.20
2017-09-12T08:51:43.807Z,2.60
2017-09-12T08:54:11.381Z,2.67
2017-09-12T08:56:39.738Z,3.03
2017-09-12T08:59:07.291Z,3.50
2017-09-12T09:01:34.869Z,3.00
2017-09-12T09:04:02.443Z,2.87
2017-09-12T09:06:30.758Z,2.67
2017-09-12T09:08:58.326Z,2.97
2017-09-12T09:11:25.935Z,2.80
2017-09-12T09:13:53.523Z,2.70
2017-09-12T09:16:21.082Z,2.67
2017-09-12T09:18:49.425Z,3.17
2017-09-12T09:21:17.006Z,2.53
2017-09-12T09:23:45.351Z,3.00
2017-09-12T09:26:13.010Z,2.83
2017-09-12T09:28:41.342Z,3.70
2017-09-12T09:31:08.955Z,2.60
2017-09-12T09:33:37.306Z,3.50
2017-09-12T09:36:05.626Z,3.10
2017-09-12T09:38:33.540Z,3.40
2017-09-12T09:41:01.098Z,3.10
2017-09-12T09:43:28.652Z,3.30
2017-09-12T09:45:56.216Z,3.00
2017-09-12T09:48:23.776Z,2.10
2017-09-12T09:50:51.354Z,3.00
2017-09-12T09:53:19.683Z,2.50
2017-09-12T09:55:47.268Z,2.90
2017-09-12T09:58:14.852Z,2.47
2017-09-12T10:00:42.409Z,2.37
2017-09-12T10:03:10.772Z,2.53
2017-09-12T10:05:38.404Z,2.43
2017-09-12T10:08:06.002Z,2.37
2017-09-12T10:10:33.634Z,2.87
2017-09-12T10:13:01.246Z,3.47
2017-09-12T10:15:28.826Z,2.27
2017-09-12T10:17:57.179Z,2.07
2017-09-12T10:20:24.726Z,2.50
2017-09-12T10:22:52.298Z,2.70
2017-09-12T10:25:19.866Z,2.23
2017-09-12T10:27:47.422Z,2.40
2017-09-12T10:30:15.866Z,3.07
2017-09-12T10:32:43.414Z,2.30
2017-09-12T10:35:10.974Z,2.50
2017-09-12T10:37:39.446Z,2.00
2017-09-12T10:40:07.862Z,2.40
2017-09-12T10:42:35.436Z,2.53
2017-09-12T10:45:03.011Z,2.03
2017-09-12T10:47:30.567Z,2.53
2017-09-12T10:49:58.138Z,2.30
2017-09-12T10:52:25.705Z,2.27
2017-09-12T10:54:53.460Z,2.77
2017-09-12T10:57:21.030Z,2.00
2017-09-12T10:59:48.619Z,2.20
2017-09-12T11:02:16.948Z,2.43
2017-09-12T11:04:44.526Z,2.30
2017-09-12T11:07:12.110Z,2.17
2017-09-12T11:09:39.787Z,2.40
2017-09-12T11:12:08.139Z,1.97
2017-09-12T11:14:35.722Z,2.10
2017-09-12T11:17:03.297Z,2.70
2017-09-12T11:19:30.896Z,2.10
2017-09-12T11:21:58.519Z,1.80
2017-09-12T11:24:26.880Z,1.63
2017-09-12T11:26:54.402Z,2.13
2017-09-12T11:29:22.031Z,2.27
2017-09-12T11:31:50.392Z,2.20
2017-09-12T11:34:17.973Z,3.13
2017-09-12T11:36:46.318Z,2.77
2017-09-12T11:39:13.887Z,2.40
2017-09-12T11:41:41.456Z,2.00
2017-09-12T11:44:09.046Z,2.20
2017-09-12T11:46:37.390Z,2.07
2017-09-12T11:49:04.967Z,2.10
2017-09-12T11:51:32.682Z,2.00
2017-09-12T11:54:00.265Z,1.90
2017-09-12T11:56:27.847Z,1.83
2017-09-12T11:58:55.409Z,2.10
2017-09-12T12:01:22.991Z,1.80
2017-09-12T12:03:50.554Z,1.87
2017-09-12T12:06:18.138Z,2.00
2017-09-12T12:08:45.697Z,2.00
2017-09-12T12:11:14.038Z,1.90
2017-09-12T12:13:41.594Z,1.90
2017-09-12T12:16:09.170Z,2.70
2017-09-12T12:18:36.803Z,2.60
2017-09-12T12:21:04.403Z,1.87
2017-09-12T12:23:31.965Z,1.87
2017-09-12T12:26:00.311Z,1.97
2017-09-12T12:28:27.898Z,2.00
2017-09-12T12:30:55.494Z,2.03
2017-09-12T12:33:23.099Z,2.73
2017-09-12T12:35:50.687Z,2.20
2017-09-12T12:38:19.043Z,2.23
2017-09-12T12:40:46.750Z,2.17
2017-09-12T12:43:15.127Z,2.40
2017-09-12T12:45:43.474Z,2.23
2017-09-12T12:48:11.225Z,1.70
2017-09-12T12:50:38.802Z,2.00
2017-09-12T12:53:06.394Z,2.07
2017-09-12T12:55:34.731Z,2.97
2017-09-12T12:58:02.312Z,2.63
2017-09-12T13:00:29.922Z,2.33
2017-09-12T13:02:57.492Z,1.67
2017-09-12T13:05:25.075Z,2.13
2017-09-12T13:07:52.654Z,2.03
2017-09-12T13:10:20.214Z,2.77
2017-09-12T13:12:47.802Z,1.97
2017-09-12T13:15:15.374Z,2.07
2017-09-12T13:17:43.702Z,2.20
2017-09-12T13:20:11.351Z,1.60
2017-09-12T13:22:38.929Z,2.40
2017-09-12T13:25:06.535Z,2.73
2017-09-12T13:27:34.087Z,2.00
2017-09-12T13:30:01.667Z,2.40
2017-09-12T13:32:30.035Z,2.17
2017-09-12T13:34:57.599Z,1.63
2017-09-12T13:37:25.942Z,1.53
2017-09-12T13:39:53.590Z,2.03
2017-09-12T13:42:21.194Z,1.90
2017-09-12T13:44:48.791Z,2.27
2017-09-12T13:47:16.367Z,2.57
2017-09-12T13:49:44.014Z,1.90
2017-09-12T13:52:11.728Z,1.60
2017-09-12T13:54:39.323Z,2.13
2017-09-12T13:57:07.686Z,1.47
2017-09-12T14:02:28.628Z,1.57
2017-09-12T14:04:56.513Z,4.50
2017-09-12T14:07:25.116Z,2.00
2017-09-12T14:09:52.715Z,1.57
2017-09-12T14:12:20.312Z,1.63
2017-09-12T14:14:47.879Z,1.60
2017-09-12T14:17:16.750Z,1.83
2017-09-12T14:19:44.313Z,1.50
2017-09-12T14:22:12.197Z,1.80
2017-09-12T14:24:40.618Z,1.53
2017-09-12T14:27:09.891Z,1.50
2017-09-12T14:29:37.503Z,2.00
2017-09-12T14:32:05.097Z,1.70
2017-09-12T14:34:32.732Z,2.40
2017-09-12T14:37:00.382Z,2.17
2017-09-12T14:39:27.973Z,2.00
2017-09-12T14:41:58.794Z,1.50
2017-09-12T14:44:26.387Z,2.23
2017-09-12T14:46:53.961Z,2.30
2017-09-12T14:49:22.294Z,1.97
2017-09-12T14:51:49.951Z,1.97
2017-09-12T14:54:17.541Z,1.10
2017-09-12T14:56:45.131Z,1.70
2017-09-12T14:59:13.484Z,1.60
2017-09-12T15:01:41.139Z,1.57
2017-09-12T15:04:09.239Z,1.20
2017-09-12T15:06:36.833Z,1.30
2017-09-12T15:09:04.415Z,1.60
2017-09-12T15:11:32.015Z,1.40
2017-09-12T15:13:59.703Z,1.80
2017-09-12T15:16:28.054Z,1.80
2017-09-12T15:18:55.602Z,1.60
2017-09-12T15:21:23.210Z,1.67
2017-09-12T15:23:51.574Z,1.40
2017-09-12T15:26:19.138Z,1.80
2017-09-12T15:28:46.754Z,1.73
2017-09-12T15:31:14.348Z,1.57
2017-09-12T15:33:42.018Z,1.40
2017-09-12T15:36:10.467Z,1.90
2017-09-12T15:38:38.066Z,1.43
2017-09-12T15:41:06.559Z,1.97
2017-09-12T15:43:34.246Z,1.67
2017-09-12T15:46:02.578Z,2.57
2017-09-12T15:48:30.139Z,1.80
2017-09-12T15:50:57.735Z,2.00
2017-09-12T15:53:26.067Z,1.60
2017-09-12T15:55:53.636Z,1.80
2017-09-12T15:58:21.193Z,2.57
2017-09-12T16:00:48.799Z,1.80
2017-09-12T16:03:17.137Z,1.97
2017-09-12T16:05:44.721Z,1.67
2017-09-12T16:08:12.273Z,2.07
2017-09-12T16:10:39.934Z,1.70
2017-09-12T16:13:07.504Z,1.77
2017-09-12T16:15:35.062Z,2.30
2017-09-12T16:18:02.651Z,2.30
2017-09-12T16:20:30.993Z,2.00
2017-09-12T16:22:58.595Z,2.13
2017-09-12T16:25:26.944Z,1.90
2017-09-12T16:27:54.636Z,1.80
2017-09-12T16:30:22.991Z,2.00
2017-09-12T16:32:51.331Z,2.60
2017-09-12T16:35:18.905Z,1.80
2017-09-12T16:37:46.531Z,2.47
2017-09-12T16:40:14.941Z,1.83
2017-09-12T16:42:42.534Z,1.80
2017-09-12T16:45:10.177Z,1.90
2017-09-12T16:47:37.785Z,1.70
2017-09-12T16:50:05.388Z,2.33
2017-09-12T16:52:32.954Z,2.40
2017-09-12T16:55:00.528Z,2.30
2017-09-12T16:57:28.091Z,2.27
2017-09-12T16:59:55.724Z,2.77
2017-09-12T17:02:23.291Z,2.63
2017-09-12T17:04:51.696Z,2.50
2017-09-12T17:07:19.247Z,3.07
2017-09-12T17:09:46.810Z,3.07
2017-09-12T17:12:14.554Z,2.57
2017-09-12T17:14:42.159Z,3.77
2017-09-12T17:17:09.763Z,3.67
2017-09-12T17:19:37.442Z,2.57
2017-09-12T17:22:05.130Z,2.70
2017-09-12T17:24:32.814Z,2.80
2017-09-12T17:27:00.433Z,3.07
2017-09-12T17:29:28.803Z,2.97
2017-09-12T17:31:57.146Z,3.53
2017-09-12T17:34:24.982Z,3.97
2017-09-12T17:36:52.612Z,3.87
2017-09-12T17:39:20.991Z,2.50
2017-09-12T17:41:49.355Z,3.77
2017-09-12T17:44:16.983Z,3.13
2017-09-12T17:46:44.947Z,3.30
2017-09-12T17:49:12.908Z,3.00
2017-09-12T17:51:40.882Z,3.70
2017-09-12T17:54:08.965Z,4.47
2017-09-12T17:56:37.027Z,4.27
2017-09-12T17:59:05.001Z,4.53
2017-09-12T18:01:32.971Z,5.30
2017-09-12T18:04:00.702Z,4.70
2017-09-12T18:06:38.305Z,3.90
2017-09-12T18:09:06.595Z,4.70
2017-09-12T18:11:34.177Z,4.23
2017-09-12T18:14:01.757Z,4.00
2017-09-12T18:16:29.365Z,3.30
2017-09-12T18:18:57.979Z,4.50
2017-09-12T18:21:25.611Z,4.30
2017-09-12T18:23:53.948Z,4.40
2017-09-12T18:26:21.584Z,4.67
2017-09-12T18:28:49.153Z,4.43
2017-09-12T18:31:16.868Z,4.30
2017-09-12T18:33:44.460Z,6.03
2017-09-12T18:36:12.088Z,4.60
2017-09-12T18:38:39.726Z,4.90
2017-09-12T18:41:07.408Z,4.33
2017-09-12T18:43:35.015Z,4.20
2017-09-12T18:46:02.617Z,4.57
2017-09-12T18:48:30.228Z,3.37
2017-09-12T18:50:58.592Z,4.20
2017-09-12T18:53:26.968Z,3.53
2017-09-12T18:55:54.529Z,3.63
2017-09-12T18:58:22.955Z,3.10
2017-09-12T19:00:50.535Z,3.50
2017-09-12T19:03:18.139Z,3.33
2017-09-12T19:05:45.739Z,2.70
2017-09-12T19:08:13.336Z,3.07
2017-09-12T19:10:40.927Z,3.13
2017-09-12T19:13:08.519Z,2.23
2017-09-12T19:15:36.136Z,2.83
2017-09-12T19:18:03.761Z,2.63
2017-09-12T19:20:31.567Z,2.50
2017-09-12T19:22:59.190Z,2.40
2017-09-12T19:25:26.902Z,2.50
2017-09-12T19:27:54.523Z,2.27
2017-09-12T19:30:22.233Z,3.07
2017-09-12T19:32:49.894Z,3.43
2017-09-12T19:35:18.399Z,2.33
2017-09-12T19:37:46.064Z,3.00
2017-09-12T19:40:14.744Z,2.93
2017-09-12T19:42:43.150Z,2.70
2017-09-12T19:45:11.540Z,3.30
2017-09-12T19:47:39.999Z,2.90
2017-09-12T19:50:08.569Z,2.87
2017-09-12T19:52:36.224Z,3.23
2017-09-12T19:55:04.625Z,3.43
2017-09-12T19:57:32.266Z,2.30
2017-09-12T20:00:02.229Z,3.17
2017-09-12T20:02:29.810Z,3.13
2017-09-12T20:04:57.529Z,2.80
2017-09-12T20:07:25.895Z,2.90
2017-09-12T20:09:53.576Z,3.87
2017-09-12T20:12:26.459Z,3.10
2017-09-12T20:14:54.533Z,3.27
2017-09-12T20:17:22.161Z,2.80
2017-09-12T20:19:49.741Z,3.40
2017-09-12T20:22:17.475Z,2.30
2017-09-12T20:24:45.081Z,2.60
2017-09-12T20:27:13.447Z,2.50
2017-09-12T20:29:41.132Z,2.63
2017-09-12T20:32:09.518Z,2.77
2017-09-12T20:34:38.066Z,3.03
2017-09-12T20:37:05.691Z,2.57
2017-09-12T20:39:33.372Z,2.63
2017-09-12T20:42:00.997Z,2.37
2017-09-12T20:44:29.558Z,2.27
2017-09-12T20:46:59.039Z,1.90
2017-09-12T20:49:26.799Z,2.07
2017-09-12T20:51:55.427Z,2.13
2017-09-12T20:54:34.000Z,2.30
2017-09-12T20:57:01.734Z,2.17
2017-09-12T20:59:29.424Z,2.17
2017-09-12T21:01:57.104Z,2.13
2017-09-12T21:04:24.860Z,2.03
2017-09-12T21:06:52.590Z,1.97
2017-09-12T21:09:20.495Z,1.60
2017-09-12T21:11:48.984Z,2.27
2017-09-12T21:14:16.728Z,2.33
2017-09-12T21:16:44.772Z,2.17
2017-09-12T21:19:12.454Z,2.70
2017-09-12T21:21:40.107Z,2.00
2017-09-12T21:24:07.932Z,1.90
2017-09-12T21:26:35.957Z,1.80
2017-09-12T21:29:04.435Z,2.03
2017-09-12T21:31:32.331Z,2.50
2017-09-12T21:33:59.984Z,1.97
2017-09-12T21:36:27.664Z,1.80
2017-09-12T21:38:55.371Z,2.57
2017-09-12T21:41:23.048Z,3.00
2017-09-12T21:43:50.740Z,2.23
2017-09-12T21:46:18.495Z,2.47
2017-09-12T21:48:56.228Z,2.60
2017-09-12T21:51:24.650Z,2.50
2017-09-12T21:53:52.415Z,2.37
2017-09-12T21:56:20.176Z,2.23
2017-09-12T21:58:51.127Z,2.30
2017-09-12T22:01:18.970Z,2.50
2017-09-12T22:03:47.549Z,2.37
2017-09-12T22:06:16.185Z,2.23
2017-09-12T22:08:44.641Z,2.50
2017-09-12T22:11:12.486Z,3.10
2017-09-12T22:13:41.088Z,1.90
2017-09-12T22:16:09.690Z,2.83
2017-09-12T22:18:37.265Z,2.63
2017-09-12T22:21:04.831Z,2.47
2017-09-12T22:23:32.459Z,2.70
2017-09-12T22:26:00.802Z,2.70
2017-09-12T22:28:28.396Z,1.90
2017-09-12T22:30:56.759Z,2.13
2017-09-12T22:33:24.565Z,1.90
2017-09-12T22:35:53.018Z,2.23
2017-09-12T22:38:21.369Z,2.70
2017-09-12T22:40:48.974Z,1.87
2017-09-12T22:43:16.539Z,1.77
2017-09-12T22:45:44.116Z,2.17
2017-09-12T22:48:11.691Z,2.00
2017-09-12T22:50:39.279Z,1.90
2017-09-12T22:53:07.058Z,2.30
2017-09-12T22:55:34.683Z,2.10
2017-09-12T22:58:02.243Z,2.40
2017-09-12T23:00:29.820Z,2.50
2017-09-12T23:02:57.394Z,2.40
2017-09-12T23:05:24.959Z,2.80
2017-09-12T23:07:52.510Z,2.20
2017-09-12T23:10:20.090Z,2.07
2017-09-12T23:12:47.662Z,2.67
2017-09-12T23:15:16.018Z,2.43
2017-09-12T23:17:43.602Z,2.93
2017-09-12T23:20:11.955Z,3.70
2017-09-12T23:22:39.510Z,2.30
2017-09-12T23:25:07.134Z,2.60
2017-09-12T23:27:34.710Z,2.30
2017-09-12T23:30:02.277Z,2.63
2017-09-12T23:32:29.855Z,2.30
2017-09-12T23:34:57.432Z,2.80
2017-09-12T23:37:25.024Z,2.40
2017-09-12T23:39:52.666Z,2.03
2017-09-12T23:42:20.320Z,2.20
2017-09-12T23:44:47.881Z,2.13
2017-09-12T23:47:15.439Z,1.70
2017-09-12T23:49:43.014Z,3.13
2017-09-12T23:52:11.363Z,2.23
2017-09-12T23:54:38.942Z,2.57
2017-09-12T23:57:06.541Z,2.60
2017-09-12T23:59:34.886Z,2.27
